createdAt,value
2023-11-17T00:00:18.536Z,4.38
2023-11-17T00:02:45.058Z,4.37
2023-11-17T00:05:12.018Z,4.36
2023-11-17T00:07:38.684Z,4.34
2023-11-17T00:10:05.743Z,4.37
2023-11-17T00:12:33.261Z,4.35
2023-11-17T00:14:59.853Z,4.33
2023-11-17T00:17:28.940Z,4.30
2023-11-17T00:19:55.629Z,4.26
2023-11-17T00:22:22.148Z,4.24
2023-11-17T00:24:48.834Z,4.24
2023-11-17T00:27:15.894Z,4.25
2023-11-17T00:29:42.486Z,4.22
2023-11-17T00:32:08.978Z,4.20
2023-11-17T00:34:35.530Z,4.19
2023-11-17T00:37:08.940Z,4.19
2023-11-17T00:39:37.035Z,4.20
2023-11-17T00:42:04.209Z,4.16
2023-11-17T00:44:31.648Z,4.16
2023-11-17T00:46:59.127Z,4.15
2023-11-17T00:49:26.685Z,4.14
2023-11-17T00:51:53.404Z,4.12
2023-11-17T00:54:26.994Z,4.17
2023-11-17T00:56:57.658Z,4.18
2023-11-17T00:59:24.136Z,4.17
2023-11-17T01:01:50.774Z,4.16
2023-11-17T01:04:18.338Z,4.13
2023-11-17T01:06:44.816Z,4.12
2023-11-17T01:09:11.250Z,4.10
2023-11-17T01:11:40.307Z,4.11
2023-11-17T01:14:06.827Z,4.12
2023-11-17T01:16:33.333Z,4.09
2023-11-17T01:18:59.788Z,4.07
2023-11-17T01:21:26.184Z,4.07
2023-11-17T01:23:52.648Z,4.10
2023-11-17T01:26:20.087Z,4.09
2023-11-17T01:28:46.522Z,4.10
2023-11-17T01:31:14.068Z,4.09
2023-11-17T01:33:40.479Z,4.10
2023-11-17T01:36:07.346Z,4.09
2023-11-17T01:38:40.492Z,4.09
2023-11-17T01:41:13.866Z,4.08
2023-11-17T01:43:40.417Z,4.07
2023-11-17T01:46:07.600Z,4.06
2023-11-17T01:48:35.963Z,4.06
2023-11-17T01:51:04.076Z,4.06
2023-11-17T01:53:31.979Z,4.06
2023-11-17T01:55:58.604Z,4.07
2023-11-17T01:58:28.304Z,4.08
2023-11-17T02:00:54.766Z,4.06
2023-11-17T02:03:21.632Z,4.05
2023-11-17T02:05:53.424Z,4.05
2023-11-17T02:08:40.332Z,4.06
2023-11-17T02:11:16.030Z,4.06
2023-11-17T02:13:56.517Z,4.06
2023-11-17T02:16:26.052Z,4.05
2023-11-17T02:18:58.287Z,4.01
2023-11-17T02:21:30.371Z,4.01
2023-11-17T02:24:02.705Z,3.98
2023-11-17T02:26:43.712Z,3.97
2023-11-17T02:29:19.585Z,3.92
2023-11-17T02:31:46.509Z,3.94
2023-11-17T02:34:16.103Z,3.95
2023-11-17T02:36:46.223Z,3.96
2023-11-17T02:39:26.392Z,3.96
2023-11-17T02:41:58.162Z,3.94
2023-11-17T02:44:34.925Z,3.93
2023-11-17T02:47:04.437Z,3.89
2023-11-17T02:49:44.030Z,3.90
2023-11-17T02:52:27.494Z,3.85
2023-11-17T02:54:55.614Z,3.86
2023-11-17T02:57:26.475Z,3.85
2023-11-17T02:59:54.672Z,3.84
2023-11-17T03:02:21.560Z,3.84
2023-11-17T03:04:53.925Z,3.83
2023-11-17T03:07:21.196Z,3.82
2023-11-17T03:09:52.722Z,3.84
2023-11-17T03:12:19.396Z,3.84
2023-11-17T03:14:45.817Z,3.86
2023-11-17T03:17:12.324Z,3.84
2023-11-17T03:19:39.014Z,3.82
2023-11-17T03:22:05.439Z,3.82
2023-11-17T03:24:35.166Z,3.82
2023-11-17T03:27:01.752Z,3.82
2023-11-17T03:29:32.982Z,3.81
2023-11-17T03:32:00.057Z,3.80
2023-11-17T03:34:31.468Z,3.79
2023-11-17T03:37:03.955Z,3.80
2023-11-17T03:39:43.809Z,3.81
2023-11-17T03:42:16.967Z,3.78
2023-11-17T03:44:43.576Z,3.75
2023-11-17T03:47:10.486Z,3.73
2023-11-17T03:49:37.365Z,3.74
2023-11-17T03:52:04.198Z,3.75
2023-11-17T03:54:31.042Z,3.74
2023-11-17T03:56:57.859Z,3.74
2023-11-17T03:59:25.928Z,3.73
2023-11-17T04:01:53.518Z,3.73
2023-11-17T04:04:20.294Z,3.73
2023-11-17T04:06:51.343Z,3.70
2023-11-17T04:09:24.243Z,3.71
2023-11-17T04:11:53.158Z,3.70
2023-11-17T04:14:23.670Z,3.70
2023-11-17T04:16:51.619Z,3.70
2023-11-17T04:19:22.221Z,3.69
2023-11-17T04:21:50.323Z,3.68
2023-11-17T04:24:18.028Z,3.66
2023-11-17T04:26:44.760Z,3.67
2023-11-17T04:29:11.186Z,3.67
2023-11-17T04:31:37.669Z,3.70
2023-11-17T04:34:04.228Z,3.69
2023-11-17T04:36:34.473Z,3.67
2023-11-17T04:39:12.888Z,3.67
2023-11-17T04:41:39.413Z,3.69
2023-11-17T04:44:05.900Z,3.71
2023-11-17T04:46:32.489Z,3.71
2023-11-17T04:48:58.959Z,3.68
2023-11-17T04:51:25.566Z,3.68
2023-11-17T04:53:52.029Z,3.66
2023-11-17T04:56:18.573Z,3.67
2023-11-17T04:58:45.737Z,3.69
2023-11-17T05:01:15.905Z,3.71
2023-11-17T05:03:43.887Z,3.70
2023-11-17T05:06:10.501Z,3.71
2023-11-17T05:08:37.597Z,3.72
2023-11-17T05:11:05.739Z,3.74
2023-11-17T05:13:33.258Z,3.73
2023-11-17T05:16:04.313Z,3.73
2023-11-17T05:18:31.107Z,3.73
2023-11-17T05:20:57.519Z,3.74
2023-11-17T05:23:24.102Z,3.75
2023-11-17T05:25:51.051Z,3.77
2023-11-17T05:28:21.497Z,3.76
2023-11-17T05:30:48.004Z,3.75
2023-11-17T05:33:19.374Z,3.75
2023-11-17T05:35:46.384Z,3.76
2023-11-17T05:38:15.644Z,3.78
2023-11-17T05:40:42.226Z,3.79
2023-11-17T05:43:08.950Z,3.77
2023-11-17T05:45:35.777Z,3.77
2023-11-17T05:48:03.440Z,3.76
2023-11-17T05:50:30.771Z,3.77
2023-11-17T05:52:57.574Z,3.78
2023-11-17T05:55:24.587Z,3.78
2023-11-17T05:57:51.741Z,3.78
2023-11-17T06:00:21.704Z,3.78
2023-11-17T06:02:48.492Z,3.79
2023-11-17T06:05:15.170Z,3.79
2023-11-17T06:07:42.846Z,3.78
2023-11-17T06:10:09.888Z,3.80
2023-11-17T06:12:36.471Z,3.81
2023-11-17T06:15:04.165Z,3.80
2023-11-17T06:17:31.020Z,3.79
2023-11-17T06:20:01.635Z,3.79
2023-11-17T06:22:29.254Z,3.80
2023-11-17T06:24:55.937Z,3.77
2023-11-17T06:27:22.854Z,3.77
2023-11-17T06:29:49.494Z,3.76
2023-11-17T06:32:16.422Z,3.74
2023-11-17T06:34:43.289Z,3.74
2023-11-17T06:37:12.190Z,3.74
2023-11-17T06:39:38.702Z,3.72
2023-11-17T06:42:08.357Z,3.71
2023-11-17T06:44:35.101Z,3.72
2023-11-17T06:47:02.012Z,3.71
2023-11-17T06:49:28.488Z,3.70
2023-11-17T06:51:58.630Z,3.70
2023-11-17T06:54:26.051Z,3.70
2023-11-17T06:56:53.006Z,3.68
2023-11-17T06:59:20.910Z,3.67
2023-11-17T07:01:50.879Z,3.66
2023-11-17T07:04:18.208Z,3.68
2023-11-17T07:06:45.098Z,3.66
2023-11-17T07:09:17.582Z,3.68
2023-11-17T07:11:45.294Z,3.68
2023-11-17T07:14:15.023Z,3.68
2023-11-17T07:16:46.290Z,3.69
2023-11-17T07:19:17.598Z,3.69
2023-11-17T07:21:46.605Z,3.71
2023-11-17T07:24:13.170Z,3.72
2023-11-17T07:26:40.211Z,3.74
2023-11-17T07:29:07.708Z,3.76
2023-11-17T07:31:41.225Z,3.80
2023-11-17T07:34:08.532Z,3.81
2023-11-17T07:36:40.788Z,3.83
2023-11-17T07:39:07.558Z,3.86
2023-11-17T07:41:34.963Z,3.89
2023-11-17T07:44:02.459Z,3.89
2023-11-17T07:46:29.494Z,3.92
2023-11-17T07:48:56.935Z,3.96
2023-11-17T07:51:24.405Z,3.97
2023-11-17T07:53:50.992Z,4.01
2023-11-17T07:56:17.658Z,4.06
2023-11-17T07:58:44.395Z,4.07
2023-11-17T08:01:11.141Z,4.12
2023-11-17T08:03:41.202Z,4.12
2023-11-17T08:06:08.265Z,4.17
2023-11-17T08:08:34.810Z,4.22
2023-11-17T08:11:01.842Z,4.22
2023-11-17T08:13:28.941Z,4.27
2023-11-17T08:15:56.249Z,4.31
2023-11-17T08:18:26.457Z,4.38
2023-11-17T08:20:53.782Z,4.46
2023-11-17T08:23:22.945Z,4.52
2023-11-17T08:25:50.392Z,4.59
2023-11-17T08:28:18.190Z,4.65
2023-11-17T08:30:52.575Z,4.71
2023-11-17T08:33:20.105Z,4.77
2023-11-17T08:35:47.291Z,4.82
2023-11-17T08:38:13.973Z,4.84
2023-11-17T08:40:40.556Z,4.91
2023-11-17T08:43:07.291Z,4.95
2023-11-17T08:45:33.988Z,4.96
2023-11-17T08:48:04.217Z,4.97
2023-11-17T08:50:30.935Z,4.99
2023-11-17T08:52:59.140Z,4.97
2023-11-17T08:55:28.950Z,5.00
2023-11-17T08:57:55.700Z,5.03
2023-11-17T09:00:27.810Z,5.04
2023-11-17T09:02:54.742Z,5.07
2023-11-17T09:05:22.725Z,5.08
2023-11-17T09:07:53.979Z,5.13
2023-11-17T09:10:24.231Z,5.19
2023-11-17T09:12:51.079Z,5.24
2023-11-17T09:15:20.292Z,5.29
2023-11-17T09:17:54.566Z,5.34
2023-11-17T09:20:24.266Z,5.38
2023-11-17T09:22:51.829Z,5.43
2023-11-17T09:25:20.723Z,5.49
2023-11-17T09:27:49.630Z,5.58
2023-11-17T09:30:16.433Z,5.71
2023-11-17T09:33:01.163Z,5.83
2023-11-17T09:35:28.683Z,5.96
2023-11-17T09:37:58.050Z,6.10
2023-11-17T09:40:25.565Z,6.27
2023-11-17T09:42:53.672Z,6.41
2023-11-17T09:45:33.151Z,6.48
2023-11-17T09:48:02.633Z,6.50
2023-11-17T09:50:31.071Z,6.52
2023-11-17T09:53:01.764Z,6.56
2023-11-17T09:55:29.945Z,6.58
2023-11-17T09:58:03.382Z,6.60
2023-11-17T10:00:31.171Z,6.66
2023-11-17T10:03:00.656Z,6.72
2023-11-17T10:05:29.799Z,6.76
2023-11-17T10:07:58.806Z,6.78
2023-11-17T10:10:27.471Z,6.81
2023-11-17T10:12:58.051Z,6.84
2023-11-17T10:15:27.144Z,6.90
2023-11-17T10:17:58.248Z,6.97
2023-11-17T10:20:25.431Z,6.97
2023-11-17T10:22:52.896Z,6.99
2023-11-17T10:25:21.027Z,7.06
2023-11-17T10:27:52.709Z,7.08
2023-11-17T10:30:26.436Z,7.11
2023-11-17T10:33:21.442Z,7.19
2023-11-17T10:36:02.258Z,7.23
2023-11-17T10:38:30.080Z,7.25
2023-11-17T10:41:23.084Z,7.32
2023-11-17T10:43:59.268Z,7.38
2023-11-17T10:46:29.704Z,7.43
2023-11-17T10:49:05.956Z,7.52
2023-11-17T10:51:33.942Z,7.63
2023-11-17T10:54:09.417Z,7.71
2023-11-17T10:56:37.971Z,7.75
2023-11-17T10:59:06.267Z,7.75
2023-11-17T11:01:33.561Z,7.78
2023-11-17T11:04:01.252Z,7.77
2023-11-17T11:06:31.232Z,7.84
2023-11-17T11:09:10.097Z,7.92
2023-11-17T11:11:37.025Z,7.94
2023-11-17T11:14:04.755Z,7.92
2023-11-17T11:16:33.765Z,7.88
2023-11-17T11:19:01.103Z,7.93
2023-11-17T11:21:30.748Z,7.98
2023-11-17T11:24:01.404Z,8.03
2023-11-17T11:26:29.605Z,8.14
2023-11-17T11:28:58.320Z,8.28
2023-11-17T11:31:26.958Z,8.32
2023-11-17T11:33:53.683Z,8.29
2023-11-17T11:36:22.944Z,8.34
2023-11-17T11:38:50.378Z,8.53
2023-11-17T11:41:18.614Z,8.49
2023-11-17T11:43:46.327Z,8.53
2023-11-17T11:46:17.642Z,8.62
2023-11-17T11:48:48.647Z,8.60
2023-11-17T11:51:16.223Z,8.62
2023-11-17T11:53:57.002Z,8.60
2023-11-17T11:56:31.278Z,8.63
2023-11-17T11:58:58.806Z,8.67
2023-11-17T12:01:33.163Z,8.68
2023-11-17T12:04:03.611Z,8.70
2023-11-17T12:06:31.366Z,8.72
2023-11-17T12:08:59.835Z,8.70
2023-11-17T12:11:34.786Z,8.70
2023-11-17T12:14:01.362Z,8.71
2023-11-17T12:16:30.761Z,8.72
2023-11-17T12:19:04.691Z,8.75
2023-11-17T12:21:39.358Z,8.80
2023-11-17T12:24:07.924Z,8.81
2023-11-17T12:26:36.917Z,8.84
2023-11-17T12:29:04.127Z,8.94
2023-11-17T12:31:30.682Z,9.00
2023-11-17T12:33:57.828Z,9.02
2023-11-17T12:36:25.779Z,9.06
2023-11-17T12:38:54.087Z,9.24
2023-11-17T12:41:29.328Z,9.33
2023-11-17T12:43:56.916Z,9.27
2023-11-17T12:46:28.058Z,9.26
2023-11-17T12:48:54.835Z,9.22
2023-11-17T12:51:29.330Z,9.27
2023-11-17T12:53:58.752Z,9.36
2023-11-17T12:56:26.313Z,9.35
2023-11-17T12:59:02.947Z,9.36
2023-11-17T13:01:30.899Z,9.39
2023-11-17T13:03:57.845Z,9.36
2023-11-17T13:06:26.981Z,9.31
2023-11-17T13:08:54.780Z,9.27
2023-11-17T13:11:29.960Z,9.25
2023-11-17T13:13:56.389Z,9.17
2023-11-17T13:16:29.713Z,9.12
2023-11-17T13:18:57.753Z,9.14
2023-11-17T13:21:26.205Z,9.13
2023-11-17T13:23:52.928Z,9.14
2023-11-17T13:26:24.061Z,9.14
2023-11-17T13:28:50.519Z,9.13
2023-11-17T13:31:24.894Z,9.07
2023-11-17T13:33:56.603Z,9.05
2023-11-17T13:36:25.932Z,9.04
2023-11-17T13:39:15.148Z,9.07
2023-11-17T13:41:55.171Z,9.06
2023-11-17T13:44:31.444Z,9.06
2023-11-17T13:47:01.806Z,9.06
2023-11-17T13:49:29.648Z,9.07
2023-11-17T13:52:02.650Z,9.06
2023-11-17T13:54:31.976Z,9.06
2023-11-17T13:56:59.066Z,9.07
2023-11-17T13:59:27.364Z,9.10
2023-11-17T14:01:59.177Z,9.06
2023-11-17T14:04:31.426Z,9.03
2023-11-17T14:06:58.907Z,9.05
2023-11-17T14:09:26.909Z,9.00
2023-11-17T14:11:54.873Z,8.97
2023-11-17T14:14:29.084Z,8.96
2023-11-17T14:16:56.138Z,8.97
2023-11-17T14:19:29.026Z,8.99
2023-11-17T14:21:55.992Z,8.97
2023-11-17T14:24:22.452Z,8.91
2023-11-17T14:26:50.653Z,8.88
2023-11-17T14:29:18.462Z,8.85
2023-11-17T14:31:45.937Z,8.83
2023-11-17T14:34:22.066Z,8.77
2023-11-17T14:36:50.152Z,8.68
2023-11-17T14:39:16.882Z,8.60
2023-11-17T14:41:43.612Z,8.56
2023-11-17T14:44:10.180Z,8.50
2023-11-17T14:46:36.835Z,8.42
2023-11-17T14:49:05.811Z,8.35
2023-11-17T14:51:32.304Z,8.34
2023-11-17T14:53:59.067Z,8.29
2023-11-17T14:56:25.761Z,8.25
2023-11-17T14:58:53.418Z,8.21
2023-11-17T15:01:25.490Z,8.17
2023-11-17T15:03:52.006Z,8.13
2023-11-17T15:06:19.429Z,8.08
2023-11-17T15:08:49.007Z,8.04
2023-11-17T15:11:16.633Z,7.98
2023-11-17T15:13:44.493Z,7.92
2023-11-17T15:16:14.810Z,7.87
2023-11-17T15:18:43.082Z,7.81
2023-11-17T15:21:09.793Z,7.78
2023-11-17T15:23:36.233Z,7.74
2023-11-17T15:26:04.984Z,7.70
2023-11-17T15:28:37.216Z,7.64
2023-11-17T15:31:04.759Z,7.59
2023-11-17T15:33:33.661Z,7.54
2023-11-17T15:36:01.264Z,7.47
2023-11-17T15:38:28.740Z,7.40
2023-11-17T15:40:58.211Z,7.33
2023-11-17T15:43:26.797Z,7.32
2023-11-17T15:45:53.503Z,7.26
2023-11-17T15:48:20.306Z,7.22
2023-11-17T15:50:46.912Z,7.18
2023-11-17T15:53:13.359Z,7.11
2023-11-17T15:55:39.821Z,7.08
2023-11-17T15:58:06.557Z,7.01
2023-11-17T16:00:33.482Z,6.94
2023-11-17T16:03:00.374Z,6.91
2023-11-17T16:05:26.922Z,6.85
2023-11-17T16:07:54.274Z,6.79
2023-11-17T16:10:23.651Z,6.69
2023-11-17T16:12:51.095Z,6.60
2023-11-17T16:15:22.296Z,6.53
2023-11-17T16:17:55.427Z,6.47
2023-11-17T16:20:24.943Z,6.43
2023-11-17T16:22:54.765Z,6.42
2023-11-17T16:25:21.397Z,6.37
2023-11-17T16:27:48.861Z,6.33
2023-11-17T16:30:18.412Z,6.24
2023-11-17T16:32:49.999Z,6.19
2023-11-17T16:35:23.299Z,6.18
2023-11-17T16:37:51.484Z,6.20
2023-11-17T16:40:26.148Z,6.15
2023-11-17T16:43:02.974Z,6.12
2023-11-17T16:45:33.362Z,6.04
2023-11-17T16:48:00.736Z,5.96
2023-11-17T16:50:28.139Z,5.89
2023-11-17T16:52:56.236Z,5.79
2023-11-17T16:55:23.338Z,5.75
2023-11-17T16:57:52.624Z,5.74
2023-11-17T17:00:22.773Z,5.71
2023-11-17T17:02:50.749Z,5.69
2023-11-17T17:05:18.827Z,5.66
2023-11-17T17:07:55.521Z,5.62
2023-11-17T17:10:23.252Z,5.62
2023-11-17T17:12:54.947Z,5.59
2023-11-17T17:15:22.500Z,5.56
2023-11-17T17:17:53.194Z,5.53
2023-11-17T17:20:23.320Z,5.48
2023-11-17T17:22:57.669Z,5.47
2023-11-17T17:25:28.130Z,5.42
2023-11-17T17:27:54.757Z,5.36
2023-11-17T17:30:24.790Z,5.31
2023-11-17T17:32:51.495Z,5.27
2023-11-17T17:35:21.163Z,5.25
2023-11-17T17:37:48.242Z,5.25
2023-11-17T17:40:15.113Z,5.18
2023-11-17T17:42:42.304Z,5.14
2023-11-17T17:45:13.069Z,5.10
2023-11-17T17:47:40.622Z,5.09
2023-11-17T17:50:13.074Z,5.07
2023-11-17T17:52:40.953Z,5.05
2023-11-17T17:55:09.303Z,5.00
2023-11-17T17:57:38.624Z,4.97
2023-11-17T18:00:08.850Z,4.96
2023-11-17T18:02:38.165Z,4.91
2023-11-17T18:05:10.967Z,4.87
2023-11-17T18:07:38.535Z,4.82
2023-11-17T18:10:06.498Z,4.78
2023-11-17T18:12:33.161Z,4.78
2023-11-17T18:15:00.995Z,4.76
2023-11-17T18:17:28.508Z,4.74
2023-11-17T18:19:55.094Z,4.68
2023-11-17T18:22:21.736Z,4.67
2023-11-17T18:24:48.358Z,4.66
2023-11-17T18:27:14.778Z,4.60
2023-11-17T18:29:41.223Z,4.59
2023-11-17T18:32:07.634Z,4.52
2023-11-17T18:34:34.155Z,4.51
2023-11-17T18:37:00.735Z,4.50
2023-11-17T18:39:27.178Z,4.47
2023-11-17T18:41:53.760Z,4.42
2023-11-17T18:44:20.552Z,4.37
2023-11-17T18:46:48.232Z,4.37
2023-11-17T18:49:14.845Z,4.30
2023-11-17T18:51:42.340Z,4.25
2023-11-17T18:54:08.751Z,4.20
2023-11-17T18:56:35.473Z,4.18
2023-11-17T18:59:01.942Z,4.15
2023-11-17T19:01:28.536Z,4.08
2023-11-17T19:03:55.131Z,4.10
2023-11-17T19:06:22.985Z,4.10
2023-11-17T19:08:49.651Z,4.09
2023-11-17T19:11:17.940Z,4.04
2023-11-17T19:13:46.213Z,4.04
2023-11-17T19:16:12.851Z,4.00
2023-11-17T19:18:39.454Z,3.96
2023-11-17T19:21:06.102Z,3.93
2023-11-17T19:23:33.284Z,3.92
2023-11-17T19:26:00.819Z,3.89
2023-11-17T19:28:27.571Z,3.91
2023-11-17T19:30:54.935Z,3.90
2023-11-17T19:33:25.062Z,3.84
2023-11-17T19:36:01.256Z,3.81
2023-11-17T19:38:33.962Z,3.78
2023-11-17T19:41:00.372Z,3.78
2023-11-17T19:43:26.858Z,3.77
2023-11-17T19:45:55.146Z,3.76
2023-11-17T19:48:21.604Z,3.73
2023-11-17T19:50:48.938Z,3.69
2023-11-17T19:53:16.398Z,3.66
2023-11-17T19:55:46.660Z,3.64
2023-11-17T19:58:15.252Z,3.63
2023-11-17T20:00:43.026Z,3.58
2023-11-17T20:03:09.721Z,3.54
2023-11-17T20:05:37.288Z,3.51
2023-11-17T20:08:05.316Z,3.52
2023-11-17T20:10:31.874Z,3.48
2023-11-17T20:12:58.745Z,3.50
2023-11-17T20:15:25.342Z,3.50
2023-11-17T20:17:56.369Z,3.49
2023-11-17T20:20:25.934Z,3.49
2023-11-17T20:22:52.848Z,3.49
2023-11-17T20:25:21.938Z,3.53
2023-11-17T20:27:48.368Z,3.53
2023-11-17T20:30:19.206Z,3.55
2023-11-17T20:32:45.799Z,3.55
2023-11-17T20:35:14.935Z,3.57
2023-11-17T20:37:42.428Z,3.58
2023-11-17T20:40:16.054Z,3.57
2023-11-17T20:42:48.622Z,3.60
2023-11-17T20:45:21.654Z,3.61
2023-11-17T20:47:48.614Z,3.63
2023-11-17T20:50:22.255Z,3.65
2023-11-17T20:52:51.577Z,3.64
2023-11-17T20:55:23.434Z,3.63
2023-11-17T20:57:51.779Z,3.56
2023-11-17T21:00:22.379Z,3.51
2023-11-17T21:03:04.332Z,3.49
2023-11-17T21:08:17.437Z,3.43
2023-11-17T21:10:46.281Z,3.40
2023-11-17T21:13:25.241Z,3.36
2023-11-17T21:15:55.673Z,3.34
2023-11-17T21:18:27.722Z,3.34
2023-11-17T21:21:01.389Z,3.28
2023-11-17T21:23:36.027Z,3.25
2023-11-17T21:26:09.585Z,3.25
2023-11-17T21:28:36.558Z,3.27
2023-11-17T21:31:05.941Z,3.23
2023-11-17T21:33:36.953Z,3.23
2023-11-17T21:36:06.965Z,3.23
2023-11-17T21:38:39.207Z,3.27
2023-11-17T21:41:05.797Z,3.28
2023-11-17T21:43:35.215Z,3.32
2023-11-17T21:46:04.433Z,3.35
2023-11-17T21:48:32.461Z,3.32
2023-11-17T21:50:58.880Z,3.30
2023-11-17T21:53:25.556Z,3.28
2023-11-17T21:55:52.180Z,3.27
2023-11-17T21:58:18.979Z,3.24
2023-11-17T22:00:45.996Z,3.23
2023-11-17T22:03:15.882Z,3.23
2023-11-17T22:05:42.417Z,3.20
2023-11-17T22:08:09.069Z,3.18
2023-11-17T22:10:36.371Z,3.14
2023-11-17T22:13:03.057Z,3.14
2023-11-17T22:15:29.590Z,3.12
2023-11-17T22:17:55.983Z,3.09
2023-11-17T22:20:22.547Z,3.09
2023-11-17T22:22:51.179Z,3.10
2023-11-17T22:25:23.101Z,3.05
2023-11-17T22:27:50.635Z,2.99
2023-11-17T22:30:25.874Z,2.98
2023-11-17T22:32:54.347Z,2.96
2023-11-17T22:35:21.091Z,2.95
2023-11-17T22:37:49.728Z,2.94
2023-11-17T22:40:16.662Z,2.93
2023-11-17T22:42:45.401Z,2.93
2023-11-17T22:45:13.094Z,2.97
2023-11-17T22:47:39.937Z,2.98
2023-11-17T22:50:10.744Z,2.97
2023-11-17T22:52:37.157Z,2.97
2023-11-17T22:55:07.985Z,2.99
2023-11-17T22:57:35.151Z,2.99
2023-11-17T23:00:01.604Z,3.02
2023-11-17T23:02:29.686Z,3.06
2023-11-17T23:04:59.357Z,3.08
2023-11-17T23:07:26.950Z,3.09
2023-11-17T23:09:53.580Z,3.14
2023-11-17T23:12:20.750Z,3.16
2023-11-17T23:14:48.298Z,3.22
2023-11-17T23:17:16.008Z,3.26
2023-11-17T23:19:46.465Z,3.30
2023-11-17T23:22:14.900Z,3.32
2023-11-17T23:24:41.956Z,3.35
2023-11-17T23:27:09.645Z,3.35
2023-11-17T23:29:39.058Z,3.39
2023-11-17T23:32:07.461Z,3.39
2023-11-17T23:34:34.033Z,3.37
2023-11-17T23:37:00.643Z,3.35
2023-11-17T23:39:27.506Z,3.35
2023-11-17T23:41:54.428Z,3.33
2023-11-17T23:44:21.065Z,3.32
2023-11-17T23:46:48.542Z,3.32
2023-11-17T23:49:15.398Z,3.30
2023-11-17T23:51:42.051Z,3.28
2023-11-17T23:54:08.782Z,3.28
2023-11-17T23:56:35.521Z,3.27
2023-11-17T23:59:03.272Z,3.25
